This is the latest recevied weather packets stored in our database for station/object HP3ICC-24. If no packets are shown the sender has not sent any weather packets the latest 10 day(s).
| Time | Temp. | Humidity | Pressure | Rain* | Wind** | Luminosity | Snow |
|---|---|---|---|---|---|---|---|
| 1778000578 | 20.56° C | 74% | 1012 hPa | 0 mm | - | - | - |
| 1777999438 | 20° C | 74% | 1013 hPa | 0 mm | - | - | - |
| 1777999377 | 20° C | 74% | 1013 hPa | 0 mm | - | - | - |
| 1777998237 | 20.56° C | 74% | 1012 hPa | 0 mm | - | - | - |
| 1777998177 | 20.56° C | 74% | 1012 hPa | 0 mm | - | - | - |
| 1777997036 | 20.56° C | 75% | 1013 hPa | 0 mm | - | - | - |
| 1777996976 | 20.56° C | 75% | 1013 hPa | 0 mm | - | - | - |
| 1777995836 | 20° C | 75% | 1013 hPa | 0 mm | - | - | - |
| 1777995776 | 20° C | 75% | 1013 hPa | 0 mm | - | - | - |
| 1777994636 | 20.56° C | 77% | 1012 hPa | 0 mm | - | - | - |
| 1777994575 | 20.56° C | 77% | 1012 hPa | 0 mm | - | - | - |
| 1777993435 | 20.56° C | 77% | 1012 hPa | 0 mm | - | - | - |
| 1777993375 | 20.56° C | 77% | 1012 hPa | 0 mm | - | - | - |
| 1777992235 | 20.56° C | 75% | 1013 hPa | 0 mm | - | - | - |
| 1777992175 | 20.56° C | 75% | 1013 hPa | 0 mm | - | - | - |
| 1777991034 | 19.44° C | 82% | 1012 hPa | 0 mm | - | - | - |
| 1777990974 | 19.44° C | 82% | 1012 hPa | 0 mm | - | - | - |
| 1777989834 | 18.89° C | 85% | 1012 hPa | 0 mm | - | - | - |
| 1777989773 | 18.89° C | 85% | 1012 hPa | 0 mm | - | - | - |
| 1777988633 | 17.78° C | 89% | 1013 hPa | 0 mm | - | - | - |
| 1777988573 | 17.78° C | 89% | 1013 hPa | 0 mm | - | - | - |
| 1777987433 | 17.78° C | 89% | 1012 hPa | 0 mm | - | - | - |
| 1777987373 | 17.78° C | 89% | 1012 hPa | 0 mm | - | - | - |
| 1777986232 | 17.78° C | 89% | 1012 hPa | 0 mm | - | - | - |
| 1777986172 | 17.78° C | 89% | 1012 hPa | 0 mm | - | - | - |
* Rain latest hour (hover to see other rain measurements)
** Current wind speed in m/s (hover to see current wind gust speed)